sensor_id;sensor_type;location;lat;lon;timestamp;P1;durP1;ratioP1;P2;durP2;ratioP2
9007;SDS011;62813;51.424;6.762;2024-01-10T00:00:13;11.93;;;4.57;;
9007;SDS011;62813;51.424;6.762;2024-01-10T00:02:41;9.77;;;4.83;;
9007;SDS011;62813;51.424;6.762;2024-01-10T00:05:08;11.53;;;4.93;;
9007;SDS011;62813;51.424;6.762;2024-01-10T00:07:35;8.90;;;4.47;;
9007;SDS011;62813;51.424;6.762;2024-01-10T00:10:03;8.43;;;4.40;;
9007;SDS011;62813;51.424;6.762;2024-01-10T00:12:31;7.30;;;4.20;;
9007;SDS011;62813;51.424;6.762;2024-01-10T00:15:05;6.63;;;3.87;;
9007;SDS011;62813;51.424;6.762;2024-01-10T00:17:32;7.93;;;4.13;;
9007;SDS011;62813;51.424;6.762;2024-01-10T00:19:59;7.60;;;4.37;;
9007;SDS011;62813;51.424;6.762;2024-01-10T00:22:26;7.93;;;4.60;;
9007;SDS011;62813;51.424;6.762;2024-01-10T00:24:53;8.87;;;4.70;;
9007;SDS011;62813;51.424;6.762;2024-01-10T00:27:19;8.10;;;4.20;;
9007;SDS011;62813;51.424;6.762;2024-01-10T00:29:46;9.43;;;4.37;;
9007;SDS011;62813;51.424;6.762;2024-01-10T00:32:13;7.70;;;4.63;;
9007;SDS011;62813;51.424;6.762;2024-01-10T00:34:40;7.73;;;4.37;;
9007;SDS011;62813;51.424;6.762;2024-01-10T00:37:07;8.80;;;4.63;;
9007;SDS011;62813;51.424;6.762;2024-01-10T00:39:33;7.60;;;4.70;;
9007;SDS011;62813;51.424;6.762;2024-01-10T00:42:00;9.27;;;4.50;;
9007;SDS011;62813;51.424;6.762;2024-01-10T00:44:27;7.50;;;4.40;;
9007;SDS011;62813;51.424;6.762;2024-01-10T00:46:54;9.93;;;4.63;;
9007;SDS011;62813;51.424;6.762;2024-01-10T00:49:20;8.80;;;4.50;;
9007;SDS011;62813;51.424;6.762;2024-01-10T00:51:47;7.67;;;4.63;;
9007;SDS011;62813;51.424;6.762;2024-01-10T00:54:14;8.00;;;4.20;;
9007;SDS011;62813;51.424;6.762;2024-01-10T00:56:40;7.43;;;4.20;;
9007;SDS011;62813;51.424;6.762;2024-01-10T00:59:07;10.47;;;4.57;;
9007;SDS011;62813;51.424;6.762;2024-01-10T01:01:34;7.40;;;4.43;;
9007;SDS011;62813;51.424;6.762;2024-01-10T01:04:01;7.13;;;4.33;;
9007;SDS011;62813;51.424;6.762;2024-01-10T01:06:27;7.83;;;4.97;;
9007;SDS011;62813;51.424;6.762;2024-01-10T01:08:54;6.93;;;4.40;;
9007;SDS011;62813;51.424;6.762;2024-01-10T01:11:21;10.23;;;4.60;;
9007;SDS011;62813;51.424;6.762;2024-01-10T01:13:48;9.10;;;4.50;;
9007;SDS011;62813;51.424;6.762;2024-01-10T01:16:14;9.10;;;4.77;;
9007;SDS011;62813;51.424;6.762;2024-01-10T01:18:41;8.93;;;4.70;;
9007;SDS011;62813;51.424;6.762;2024-01-10T01:21:11;9.63;;;4.53;;
9007;SDS011;62813;51.424;6.762;2024-01-10T01:23:38;7.50;;;4.77;;
9007;SDS011;62813;51.424;6.762;2024-01-10T01:26:08;9.23;;;4.70;;
9007;SDS011;62813;51.424;6.762;2024-01-10T01:28:35;8.97;;;4.53;;
9007;SDS011;62813;51.424;6.762;2024-01-10T01:31:02;11.37;;;4.97;;
9007;SDS011;62813;51.424;6.762;2024-01-10T01:33:28;8.67;;;4.90;;
9007;SDS011;62813;51.424;6.762;2024-01-10T01:35:56;9.57;;;5.23;;
9007;SDS011;62813;51.424;6.762;2024-01-10T01:38:23;11.07;;;5.90;;
9007;SDS011;62813;51.424;6.762;2024-01-10T01:40:49;8.27;;;4.90;;
9007;SDS011;62813;51.424;6.762;2024-01-10T01:43:20;8.10;;;4.73;;
9007;SDS011;62813;51.424;6.762;2024-01-10T01:45:50;10.47;;;4.77;;
9007;SDS011;62813;51.424;6.762;2024-01-10T01:48:18;6.77;;;4.33;;
9007;SDS011;62813;51.424;6.762;2024-01-10T01:50:47;8.00;;;4.67;;
9007;SDS011;62813;51.424;6.762;2024-01-10T01:53:17;10.00;;;5.10;;
9007;SDS011;62813;51.424;6.762;2024-01-10T01:55:45;9.00;;;4.70;;
9007;SDS011;62813;51.424;6.762;2024-01-10T01:58:13;8.00;;;4.30;;
9007;SDS011;62813;51.424;6.762;2024-01-10T02:00:40;8.83;;;4.90;;
9007;SDS011;62813;51.424;6.762;2024-01-10T02:03:08;9.17;;;4.77;;
9007;SDS011;62813;51.424;6.762;2024-01-10T02:05:36;14.67;;;5.37;;
9007;SDS011;62813;51.424;6.762;2024-01-10T02:08:04;8.40;;;4.63;;
9007;SDS011;62813;51.424;6.762;2024-01-10T02:10:31;7.40;;;4.53;;
9007;SDS011;62813;51.424;6.762;2024-01-10T02:12:58;10.97;;;5.27;;
9007;SDS011;62813;51.424;6.762;2024-01-10T02:15:25;10.10;;;4.40;;
9007;SDS011;62813;51.424;6.762;2024-01-10T02:17:52;7.07;;;4.53;;
9007;SDS011;62813;51.424;6.762;2024-01-10T02:20:19;9.23;;;4.50;;
9007;SDS011;62813;51.424;6.762;2024-01-10T02:22:47;9.73;;;5.20;;
9007;SDS011;62813;51.424;6.762;2024-01-10T02:25:17;8.67;;;5.10;;
9007;SDS011;62813;51.424;6.762;2024-01-10T02:27:43;10.90;;;5.27;;
9007;SDS011;62813;51.424;6.762;2024-01-10T02:30:11;8.13;;;4.73;;
9007;SDS011;62813;51.424;6.762;2024-01-10T02:32:38;8.43;;;4.83;;
9007;SDS011;62813;51.424;6.762;2024-01-10T02:35:05;9.93;;;5.00;;
9007;SDS011;62813;51.424;6.762;2024-01-10T02:37:32;8.90;;;5.13;;
9007;SDS011;62813;51.424;6.762;2024-01-10T02:40:00;8.40;;;5.13;;
9007;SDS011;62813;51.424;6.762;2024-01-10T02:42:27;10.07;;;5.00;;
9007;SDS011;62813;51.424;6.762;2024-01-10T02:44:55;11.57;;;4.47;;
9007;SDS011;62813;51.424;6.762;2024-01-10T02:47:22;9.50;;;4.90;;
9007;SDS011;62813;51.424;6.762;2024-01-10T02:49:48;10.50;;;5.20;;
9007;SDS011;62813;51.424;6.762;2024-01-10T02:52:15;9.33;;;4.77;;
9007;SDS011;62813;51.424;6.762;2024-01-10T02:54:42;11.40;;;5.63;;
9007;SDS011;62813;51.424;6.762;2024-01-10T02:57:09;12.10;;;4.73;;
9007;SDS011;62813;51.424;6.762;2024-01-10T02:59:36;8.40;;;4.47;;
9007;SDS011;62813;51.424;6.762;2024-01-10T03:02:02;10.83;;;5.40;;
9007;SDS011;62813;51.424;6.762;2024-01-10T03:04:30;9.23;;;5.63;;
9007;SDS011;62813;51.424;6.762;2024-01-10T03:06:56;11.13;;;5.10;;
9007;SDS011;62813;51.424;6.762;2024-01-10T03:09:23;10.30;;;5.37;;
9007;SDS011;62813;51.424;6.762;2024-01-10T03:11:50;10.67;;;5.53;;
9007;SDS011;62813;51.424;6.762;2024-01-10T03:14:17;7.60;;;4.80;;
9007;SDS011;62813;51.424;6.762;2024-01-10T03:16:44;10.17;;;5.50;;
9007;SDS011;62813;51.424;6.762;2024-01-10T03:19:10;11.07;;;5.47;;
9007;SDS011;62813;51.424;6.762;2024-01-10T03:21:37;8.37;;;5.10;;
9007;SDS011;62813;51.424;6.762;2024-01-10T03:24:04;9.03;;;5.17;;
9007;SDS011;62813;51.424;6.762;2024-01-10T03:26:31;11.67;;;5.37;;
9007;SDS011;62813;51.424;6.762;2024-01-10T03:28:58;9.90;;;5.30;;
9007;SDS011;62813;51.424;6.762;2024-01-10T03:31:25;11.13;;;5.30;;
9007;SDS011;62813;51.424;6.762;2024-01-10T03:33:50;10.57;;;5.97;;
9007;SDS011;62813;51.424;6.762;2024-01-10T03:36:17;8.80;;;5.00;;
9007;SDS011;62813;51.424;6.762;2024-01-10T03:38:45;9.97;;;5.07;;
9007;SDS011;62813;51.424;6.762;2024-01-10T03:41:15;9.50;;;5.20;;
9007;SDS011;62813;51.424;6.762;2024-01-10T03:43:44;11.50;;;5.70;;
9007;SDS011;62813;51.424;6.762;2024-01-10T03:46:11;11.73;;;5.03;;
9007;SDS011;62813;51.424;6.762;2024-01-10T03:48:38;9.47;;;5.33;;
9007;SDS011;62813;51.424;6.762;2024-01-10T03:51:15;7.97;;;4.80;;
9007;SDS011;62813;51.424;6.762;2024-01-10T03:53:46;9.37;;;5.53;;
9007;SDS011;62813;51.424;6.762;2024-01-10T03:56:15;9.07;;;5.40;;
9007;SDS011;62813;51.424;6.762;2024-01-10T03:58:42;9.00;;;5.17;;
9007;SDS011;62813;51.424;6.762;2024-01-10T04:01:09;11.37;;;5.77;;
9007;SDS011;62813;51.424;6.762;2024-01-10T04:03:36;9.53;;;5.30;;
9007;SDS011;62813;51.424;6.762;2024-01-10T04:06:05;8.93;;;5.40;;
9007;SDS011;62813;51.424;6.762;2024-01-10T04:08:32;8.43;;;5.10;;
9007;SDS011;62813;51.424;6.762;2024-01-10T04:10:58;11.20;;;5.67;;
9007;SDS011;62813;51.424;6.762;2024-01-10T04:13:25;8.87;;;5.77;;
9007;SDS011;62813;51.424;6.762;2024-01-10T04:15:52;10.83;;;5.63;;
9007;SDS011;62813;51.424;6.762;2024-01-10T04:18:19;10.17;;;5.63;;
9007;SDS011;62813;51.424;6.762;2024-01-10T04:20:50;10.83;;;5.60;;
9007;SDS011;62813;51.424;6.762;2024-01-10T04:23:16;12.27;;;5.80;;
9007;SDS011;62813;51.424;6.762;2024-01-10T04:25:43;9.90;;;5.40;;
9007;SDS011;62813;51.424;6.762;2024-01-10T04:28:10;11.40;;;5.53;;
9007;SDS011;62813;51.424;6.762;2024-01-10T04:30:37;9.10;;;5.10;;
9007;SDS011;62813;51.424;6.762;2024-01-10T04:33:04;12.23;;;6.00;;
9007;SDS011;62813;51.424;6.762;2024-01-10T04:35:31;11.00;;;5.80;;
9007;SDS011;62813;51.424;6.762;2024-01-10T04:37:58;10.90;;;5.40;;
9007;SDS011;62813;51.424;6.762;2024-01-10T04:40:25;10.40;;;5.97;;
9007;SDS011;62813;51.424;6.762;2024-01-10T04:42:51;10.47;;;5.07;;
9007;SDS011;62813;51.424;6.762;2024-01-10T04:45:18;10.17;;;5.90;;
9007;SDS011;62813;51.424;6.762;2024-01-10T04:47:45;13.73;;;6.03;;
9007;SDS011;62813;51.424;6.762;2024-01-10T04:50:12;11.93;;;5.87;;
9007;SDS011;62813;51.424;6.762;2024-01-10T04:52:40;10.80;;;5.70;;
9007;SDS011;62813;51.424;6.762;2024-01-10T04:55:07;9.47;;;5.27;;
9007;SDS011;62813;51.424;6.762;2024-01-10T04:57:35;13.53;;;6.17;;
9007;SDS011;62813;51.424;6.762;2024-01-10T05:00:02;13.73;;;8.00;;
9007;SDS011;62813;51.424;6.762;2024-01-10T05:02:31;9.47;;;5.47;;
9007;SDS011;62813;51.424;6.762;2024-01-10T05:04:58;11.80;;;5.83;;
9007;SDS011;62813;51.424;6.762;2024-01-10T05:07:26;10.50;;;6.00;;
9007;SDS011;62813;51.424;6.762;2024-01-10T05:09:52;12.27;;;6.53;;
9007;SDS011;62813;51.424;6.762;2024-01-10T05:12:19;10.57;;;5.97;;
9007;SDS011;62813;51.424;6.762;2024-01-10T05:14:46;12.17;;;6.33;;
9007;SDS011;62813;51.424;6.762;2024-01-10T05:17:13;10.40;;;5.77;;
9007;SDS011;62813;51.424;6.762;2024-01-10T05:19:40;10.47;;;5.43;;
9007;SDS011;62813;51.424;6.762;2024-01-10T05:22:07;10.47;;;5.67;;
9007;SDS011;62813;51.424;6.762;2024-01-10T05:24:34;13.17;;;6.30;;
9007;SDS011;62813;51.424;6.762;2024-01-10T05:27:02;10.20;;;5.80;;
9007;SDS011;62813;51.424;6.762;2024-01-10T05:29:29;11.67;;;5.63;;
9007;SDS011;62813;51.424;6.762;2024-01-10T05:31:56;12.70;;;6.73;;
9007;SDS011;62813;51.424;6.762;2024-01-10T05:34:23;10.80;;;5.63;;
9007;SDS011;62813;51.424;6.762;2024-01-10T05:36:50;16.30;;;8.50;;
9007;SDS011;62813;51.424;6.762;2024-01-10T05:39:16;11.83;;;5.77;;
9007;SDS011;62813;51.424;6.762;2024-01-10T05:41:45;11.23;;;5.63;;
9007;SDS011;62813;51.424;6.762;2024-01-10T05:44:12;10.67;;;5.97;;
9007;SDS011;62813;51.424;6.762;2024-01-10T05:46:39;11.93;;;5.10;;
9007;SDS011;62813;51.424;6.762;2024-01-10T05:49:07;10.37;;;5.23;;
9007;SDS011;62813;51.424;6.762;2024-01-10T05:51:35;11.07;;;5.90;;
9007;SDS011;62813;51.424;6.762;2024-01-10T05:54:01;8.50;;;5.27;;
9007;SDS011;62813;51.424;6.762;2024-01-10T05:56:28;12.97;;;5.93;;
9007;SDS011;62813;51.424;6.762;2024-01-10T05:58:55;10.80;;;6.10;;
9007;SDS011;62813;51.424;6.762;2024-01-10T06:01:22;9.90;;;4.83;;
9007;SDS011;62813;51.424;6.762;2024-01-10T06:03:49;12.57;;;6.50;;
9007;SDS011;62813;51.424;6.762;2024-01-10T06:06:15;10.70;;;5.73;;
9007;SDS011;62813;51.424;6.762;2024-01-10T06:08:42;9.93;;;5.27;;
9007;SDS011;62813;51.424;6.762;2024-01-10T06:11:09;11.13;;;6.00;;
9007;SDS011;62813;51.424;6.762;2024-01-10T06:13:36;13.40;;;6.33;;
9007;SDS011;62813;51.424;6.762;2024-01-10T06:16:18;15.47;;;7.93;;
9007;SDS011;62813;51.424;6.762;2024-01-10T06:18:45;11.90;;;6.47;;
9007;SDS011;62813;51.424;6.762;2024-01-10T06:21:12;11.07;;;6.27;;
9007;SDS011;62813;51.424;6.762;2024-01-10T06:23:39;11.43;;;6.30;;
9007;SDS011;62813;51.424;6.762;2024-01-10T06:26:05;11.30;;;7.03;;
9007;SDS011;62813;51.424;6.762;2024-01-10T06:28:33;13.07;;;6.67;;
9007;SDS011;62813;51.424;6.762;2024-01-10T06:30:59;12.87;;;6.40;;
9007;SDS011;62813;51.424;6.762;2024-01-10T06:33:26;16.00;;;7.57;;
9007;SDS011;62813;51.424;6.762;2024-01-10T06:35:53;14.77;;;7.63;;
9007;SDS011;62813;51.424;6.762;2024-01-10T06:38:21;11.47;;;6.63;;
9007;SDS011;62813;51.424;6.762;2024-01-10T06:40:49;10.90;;;6.20;;
9007;SDS011;62813;51.424;6.762;2024-01-10T06:43:17;10.97;;;5.93;;
9007;SDS011;62813;51.424;6.762;2024-01-10T06:45:44;11.33;;;6.07;;
9007;SDS011;62813;51.424;6.762;2024-01-10T06:48:11;10.37;;;6.40;;
9007;SDS011;62813;51.424;6.762;2024-01-10T06:50:38;11.90;;;6.60;;
9007;SDS011;62813;51.424;6.762;2024-01-10T06:53:06;10.80;;;6.50;;
9007;SDS011;62813;51.424;6.762;2024-01-10T06:55:34;10.50;;;6.10;;
9007;SDS011;62813;51.424;6.762;2024-01-10T06:58:01;10.73;;;6.20;;
9007;SDS011;62813;51.424;6.762;2024-01-10T07:00:27;12.47;;;6.43;;
9007;SDS011;62813;51.424;6.762;2024-01-10T07:02:54;12.17;;;6.03;;
9007;SDS011;62813;51.424;6.762;2024-01-10T07:05:21;9.50;;;6.03;;
9007;SDS011;62813;51.424;6.762;2024-01-10T07:07:48;10.73;;;6.17;;
9007;SDS011;62813;51.424;6.762;2024-01-10T07:10:16;14.40;;;6.57;;
9007;SDS011;62813;51.424;6.762;2024-01-10T07:12:43;24.17;;;8.43;;
9007;SDS011;62813;51.424;6.762;2024-01-10T07:15:09;14.17;;;6.83;;
9007;SDS011;62813;51.424;6.762;2024-01-10T07:17:40;13.50;;;6.63;;
9007;SDS011;62813;51.424;6.762;2024-01-10T07:20:07;11.70;;;6.37;;
9007;SDS011;62813;51.424;6.762;2024-01-10T07:22:35;40.67;;;18.07;;
9007;SDS011;62813;51.424;6.762;2024-01-10T07:25:02;17.93;;;9.00;;
9007;SDS011;62813;51.424;6.762;2024-01-10T07:27:31;13.57;;;6.93;;
9007;SDS011;62813;51.424;6.762;2024-01-10T07:29:58;12.83;;;6.83;;
9007;SDS011;62813;51.424;6.762;2024-01-10T07:32:25;12.97;;;7.10;;
9007;SDS011;62813;51.424;6.762;2024-01-10T07:34:52;14.40;;;7.20;;
9007;SDS011;62813;51.424;6.762;2024-01-10T07:37:19;17.40;;;8.00;;
9007;SDS011;62813;51.424;6.762;2024-01-10T07:39:47;12.30;;;6.57;;
9007;SDS011;62813;51.424;6.762;2024-01-10T07:42:14;13.80;;;7.37;;
9007;SDS011;62813;51.424;6.762;2024-01-10T07:44:41;13.33;;;6.60;;
9007;SDS011;62813;51.424;6.762;2024-01-10T07:47:10;14.03;;;7.07;;
9007;SDS011;62813;51.424;6.762;2024-01-10T07:49:37;13.53;;;7.50;;
9007;SDS011;62813;51.424;6.762;2024-01-10T07:52:04;15.40;;;7.20;;
9007;SDS011;62813;51.424;6.762;2024-01-10T07:54:31;12.80;;;6.93;;
9007;SDS011;62813;51.424;6.762;2024-01-10T07:56:58;19.33;;;9.53;;
9007;SDS011;62813;51.424;6.762;2024-01-10T07:59:25;16.83;;;8.50;;
9007;SDS011;62813;51.424;6.762;2024-01-10T08:01:55;17.50;;;7.63;;
9007;SDS011;62813;51.424;6.762;2024-01-10T08:04:23;15.17;;;6.87;;
9007;SDS011;62813;51.424;6.762;2024-01-10T08:06:50;13.87;;;7.20;;
9007;SDS011;62813;51.424;6.762;2024-01-10T08:09:17;15.50;;;7.73;;
9007;SDS011;62813;51.424;6.762;2024-01-10T08:11:45;10.27;;;6.80;;
9007;SDS011;62813;51.424;6.762;2024-01-10T08:14:12;15.47;;;7.63;;
9007;SDS011;62813;51.424;6.762;2024-01-10T08:16:39;14.87;;;7.37;;
9007;SDS011;62813;51.424;6.762;2024-01-10T08:19:06;13.33;;;6.60;;
9007;SDS011;62813;51.424;6.762;2024-01-10T08:21:32;13.37;;;7.50;;
9007;SDS011;62813;51.424;6.762;2024-01-10T08:23:59;14.73;;;7.67;;
9007;SDS011;62813;51.424;6.762;2024-01-10T08:26:28;15.87;;;7.90;;
9007;SDS011;62813;51.424;6.762;2024-01-10T08:28:57;14.60;;;7.60;;
9007;SDS011;62813;51.424;6.762;2024-01-10T08:31:23;14.73;;;7.33;;
9007;SDS011;62813;51.424;6.762;2024-01-10T08:33:50;13.77;;;7.47;;
9007;SDS011;62813;51.424;6.762;2024-01-10T08:36:17;15.37;;;7.17;;
9007;SDS011;62813;51.424;6.762;2024-01-10T08:38:44;16.10;;;7.30;;
9007;SDS011;62813;51.424;6.762;2024-01-10T08:41:11;16.77;;;8.13;;
9007;SDS011;62813;51.424;6.762;2024-01-10T08:43:38;19.60;;;7.63;;
9007;SDS011;62813;51.424;6.762;2024-01-10T08:46:05;15.47;;;7.90;;
9007;SDS011;62813;51.424;6.762;2024-01-10T08:48:33;13.57;;;7.37;;
9007;SDS011;62813;51.424;6.762;2024-01-10T08:51:00;12.87;;;7.40;;
9007;SDS011;62813;51.424;6.762;2024-01-10T08:53:27;20.97;;;8.03;;
9007;SDS011;62813;51.424;6.762;2024-01-10T08:55:54;18.83;;;8.27;;
9007;SDS011;62813;51.424;6.762;2024-01-10T08:58:21;15.60;;;8.20;;
9007;SDS011;62813;51.424;6.762;2024-01-10T09:00:47;13.37;;;7.17;;
9007;SDS011;62813;51.424;6.762;2024-01-10T09:03:14;14.07;;;8.00;;
9007;SDS011;62813;51.424;6.762;2024-01-10T09:05:41;14.97;;;7.90;;
9007;SDS011;62813;51.424;6.762;2024-01-10T09:08:18;17.23;;;8.47;;
9007;SDS011;62813;51.424;6.762;2024-01-10T09:10:45;17.50;;;8.30;;
9007;SDS011;62813;51.424;6.762;2024-01-10T09:13:12;16.20;;;8.80;;
9007;SDS011;62813;51.424;6.762;2024-01-10T09:15:38;18.63;;;8.47;;
9007;SDS011;62813;51.424;6.762;2024-01-10T09:18:05;18.67;;;8.57;;
9007;SDS011;62813;51.424;6.762;2024-01-10T09:20:32;18.57;;;9.20;;
9007;SDS011;62813;51.424;6.762;2024-01-10T09:22:59;15.97;;;8.23;;
9007;SDS011;62813;51.424;6.762;2024-01-10T09:25:29;16.43;;;8.50;;
9007;SDS011;62813;51.424;6.762;2024-01-10T09:27:56;21.20;;;8.90;;
9007;SDS011;62813;51.424;6.762;2024-01-10T09:30:22;15.00;;;8.33;;
9007;SDS011;62813;51.424;6.762;2024-01-10T09:32:50;19.03;;;8.53;;
9007;SDS011;62813;51.424;6.762;2024-01-10T09:35:17;16.67;;;8.53;;
9007;SDS011;62813;51.424;6.762;2024-01-10T09:37:44;15.00;;;8.60;;
9007;SDS011;62813;51.424;6.762;2024-01-10T09:40:13;16.13;;;9.03;;
9007;SDS011;62813;51.424;6.762;2024-01-10T09:42:41;19.20;;;9.77;;
9007;SDS011;62813;51.424;6.762;2024-01-10T09:45:08;16.93;;;8.90;;
9007;SDS011;62813;51.424;6.762;2024-01-10T09:47:39;22.73;;;10.07;;
9007;SDS011;62813;51.424;6.762;2024-01-10T09:50:09;18.10;;;9.07;;
9007;SDS011;62813;51.424;6.762;2024-01-10T09:52:39;16.43;;;9.37;;
9007;SDS011;62813;51.424;6.762;2024-01-10T09:55:11;20.90;;;10.00;;
9007;SDS011;62813;51.424;6.762;2024-01-10T09:57:39;18.20;;;9.80;;
9007;SDS011;62813;51.424;6.762;2024-01-10T10:00:08;19.17;;;9.30;;
9007;SDS011;62813;51.424;6.762;2024-01-10T10:02:37;19.70;;;9.30;;
9007;SDS011;62813;51.424;6.762;2024-01-10T10:05:16;18.37;;;9.70;;
9007;SDS011;62813;51.424;6.762;2024-01-10T10:07:48;19.27;;;10.20;;
9007;SDS011;62813;51.424;6.762;2024-01-10T10:10:16;18.37;;;10.87;;
9007;SDS011;62813;51.424;6.762;2024-01-10T10:12:45;18.97;;;10.80;;
9007;SDS011;62813;51.424;6.762;2024-01-10T10:15:16;19.43;;;10.30;;
9007;SDS011;62813;51.424;6.762;2024-01-10T10:17:47;18.83;;;9.97;;
9007;SDS011;62813;51.424;6.762;2024-01-10T10:23:04;18.97;;;10.70;;
9007;SDS011;62813;51.424;6.762;2024-01-10T10:25:36;22.60;;;10.50;;
9007;SDS011;62813;51.424;6.762;2024-01-10T10:28:12;20.17;;;10.03;;
9007;SDS011;62813;51.424;6.762;2024-01-10T10:30:54;22.50;;;10.73;;
9007;SDS011;62813;51.424;6.762;2024-01-10T10:33:21;21.80;;;10.73;;
9007;SDS011;62813;51.424;6.762;2024-01-10T10:35:49;21.43;;;10.00;;
9007;SDS011;62813;51.424;6.762;2024-01-10T10:38:21;17.43;;;10.07;;
9007;SDS011;62813;51.424;6.762;2024-01-10T10:40:48;22.27;;;10.40;;
9007;SDS011;62813;51.424;6.762;2024-01-10T10:43:16;19.90;;;10.73;;
9007;SDS011;62813;51.424;6.762;2024-01-10T10:45:49;19.70;;;11.30;;
9007;SDS011;62813;51.424;6.762;2024-01-10T10:48:17;21.30;;;10.93;;
9007;SDS011;62813;51.424;6.762;2024-01-10T10:50:56;21.30;;;10.60;;
9007;SDS011;62813;51.424;6.762;2024-01-10T10:53:30;17.80;;;10.10;;
9007;SDS011;62813;51.424;6.762;2024-01-10T10:55:58;17.00;;;10.17;;
9007;SDS011;62813;51.424;6.762;2024-01-10T10:58:25;18.90;;;11.07;;
9007;SDS011;62813;51.424;6.762;2024-01-10T11:00:52;20.37;;;11.40;;
9007;SDS011;62813;51.424;6.762;2024-01-10T11:03:20;20.63;;;10.30;;
9007;SDS011;62813;51.424;6.762;2024-01-10T11:05:47;26.37;;;13.67;;
9007;SDS011;62813;51.424;6.762;2024-01-10T11:08:17;23.50;;;12.83;;
9007;SDS011;62813;51.424;6.762;2024-01-10T11:10:47;19.80;;;10.50;;
9007;SDS011;62813;51.424;6.762;2024-01-10T11:13:28;21.70;;;12.43;;
9007;SDS011;62813;51.424;6.762;2024-01-10T11:22:17;25.47;;;12.37;;
9007;SDS011;62813;51.424;6.762;2024-01-10T11:24:58;22.77;;;12.57;;
9007;SDS011;62813;51.424;6.762;2024-01-10T11:27:28;29.23;;;12.50;;
9007;SDS011;62813;51.424;6.762;2024-01-10T11:29:55;21.63;;;11.30;;
9007;SDS011;62813;51.424;6.762;2024-01-10T11:32:23;22.23;;;11.27;;
9007;SDS011;62813;51.424;6.762;2024-01-10T11:35:04;21.73;;;12.10;;
9007;SDS011;62813;51.424;6.762;2024-01-10T11:37:38;27.73;;;11.53;;
9007;SDS011;62813;51.424;6.762;2024-01-10T11:40:09;22.27;;;10.93;;
9007;SDS011;62813;51.424;6.762;2024-01-10T11:42:43;21.50;;;12.17;;
9007;SDS011;62813;51.424;6.762;2024-01-10T11:47:57;20.20;;;11.33;;
9007;SDS011;62813;51.424;6.762;2024-01-10T11:50:25;21.67;;;12.33;;
9007;SDS011;62813;51.424;6.762;2024-01-10T11:52:53;22.00;;;11.17;;
9007;SDS011;62813;51.424;6.762;2024-01-10T11:58:12;18.17;;;11.20;;
9007;SDS011;62813;51.424;6.762;2024-01-10T12:00:42;21.53;;;12.50;;
9007;SDS011;62813;51.424;6.762;2024-01-10T12:03:11;19.47;;;11.27;;
9007;SDS011;62813;51.424;6.762;2024-01-10T12:05:39;25.93;;;12.30;;
9007;SDS011;62813;51.424;6.762;2024-01-10T12:08:06;18.77;;;11.53;;
9007;SDS011;62813;51.424;6.762;2024-01-10T12:10:34;21.00;;;11.63;;
9007;SDS011;62813;51.424;6.762;2024-01-10T12:13:03;19.83;;;12.53;;
9007;SDS011;62813;51.424;6.762;2024-01-10T12:15:30;24.03;;;12.33;;
9007;SDS011;62813;51.424;6.762;2024-01-10T12:17:56;19.03;;;11.67;;
9007;SDS011;62813;51.424;6.762;2024-01-10T12:20:23;19.33;;;10.53;;
9007;SDS011;62813;51.424;6.762;2024-01-10T12:22:50;22.63;;;12.33;;
9007;SDS011;62813;51.424;6.762;2024-01-10T12:25:17;20.23;;;11.70;;
9007;SDS011;62813;51.424;6.762;2024-01-10T12:27:45;23.30;;;11.40;;
9007;SDS011;62813;51.424;6.762;2024-01-10T12:30:12;20.87;;;12.07;;
9007;SDS011;62813;51.424;6.762;2024-01-10T12:32:39;22.13;;;12.63;;
9007;SDS011;62813;51.424;6.762;2024-01-10T12:35:06;30.00;;;12.87;;
9007;SDS011;62813;51.424;6.762;2024-01-10T12:37:34;23.30;;;12.20;;
9007;SDS011;62813;51.424;6.762;2024-01-10T12:40:01;24.27;;;12.50;;
9007;SDS011;62813;51.424;6.762;2024-01-10T12:42:36;25.23;;;12.80;;
9007;SDS011;62813;51.424;6.762;2024-01-10T12:45:03;24.93;;;12.33;;
9007;SDS011;62813;51.424;6.762;2024-01-10T12:47:30;25.13;;;12.53;;
9007;SDS011;62813;51.424;6.762;2024-01-10T12:49:57;26.33;;;12.67;;
9007;SDS011;62813;51.424;6.762;2024-01-10T12:52:24;24.23;;;11.80;;
9007;SDS011;62813;51.424;6.762;2024-01-10T12:54:52;20.27;;;12.23;;
9007;SDS011;62813;51.424;6.762;2024-01-10T12:57:19;20.70;;;11.70;;
9007;SDS011;62813;51.424;6.762;2024-01-10T12:59:46;28.70;;;13.00;;
9007;SDS011;62813;51.424;6.762;2024-01-10T13:02:12;30.63;;;15.80;;
9007;SDS011;62813;51.424;6.762;2024-01-10T13:04:39;32.57;;;17.60;;
9007;SDS011;62813;51.424;6.762;2024-01-10T13:07:06;20.23;;;11.90;;
9007;SDS011;62813;51.424;6.762;2024-01-10T13:09:33;23.10;;;13.03;;
9007;SDS011;62813;51.424;6.762;2024-01-10T13:12:01;18.93;;;10.53;;
9007;SDS011;62813;51.424;6.762;2024-01-10T13:14:28;20.37;;;11.60;;
9007;SDS011;62813;51.424;6.762;2024-01-10T13:16:58;18.10;;;11.30;;
9007;SDS011;62813;51.424;6.762;2024-01-10T13:19:26;21.47;;;12.20;;
9007;SDS011;62813;51.424;6.762;2024-01-10T13:21:53;27.77;;;13.13;;
9007;SDS011;62813;51.424;6.762;2024-01-10T13:24:20;23.87;;;10.97;;
9007;SDS011;62813;51.424;6.762;2024-01-10T13:26:47;22.90;;;11.77;;
9007;SDS011;62813;51.424;6.762;2024-01-10T13:29:15;21.03;;;11.70;;
9007;SDS011;62813;51.424;6.762;2024-01-10T13:31:42;24.37;;;11.80;;
9007;SDS011;62813;51.424;6.762;2024-01-10T13:34:09;23.47;;;12.53;;
9007;SDS011;62813;51.424;6.762;2024-01-10T13:36:38;22.73;;;11.83;;
9007;SDS011;62813;51.424;6.762;2024-01-10T13:39:04;19.63;;;11.17;;
9007;SDS011;62813;51.424;6.762;2024-01-10T13:41:32;19.17;;;11.43;;
9007;SDS011;62813;51.424;6.762;2024-01-10T13:43:58;24.20;;;11.83;;
9007;SDS011;62813;51.424;6.762;2024-01-10T13:46:25;21.87;;;11.47;;
9007;SDS011;62813;51.424;6.762;2024-01-10T13:48:52;24.30;;;11.63;;
9007;SDS011;62813;51.424;6.762;2024-01-10T13:51:19;21.17;;;12.20;;
9007;SDS011;62813;51.424;6.762;2024-01-10T13:53:46;21.17;;;12.20;;
9007;SDS011;62813;51.424;6.762;2024-01-10T13:56:12;19.37;;;11.70;;
9007;SDS011;62813;51.424;6.762;2024-01-10T13:58:39;18.47;;;11.03;;
9007;SDS011;62813;51.424;6.762;2024-01-10T14:01:06;24.90;;;12.27;;
9007;SDS011;62813;51.424;6.762;2024-01-10T14:03:33;20.93;;;11.50;;
9007;SDS011;62813;51.424;6.762;2024-01-10T14:05:59;21.47;;;11.30;;
9007;SDS011;62813;51.424;6.762;2024-01-10T14:08:27;24.10;;;11.50;;
9007;SDS011;62813;51.424;6.762;2024-01-10T14:10:54;25.23;;;13.27;;
9007;SDS011;62813;51.424;6.762;2024-01-10T14:13:21;22.97;;;11.63;;
9007;SDS011;62813;51.424;6.762;2024-01-10T14:15:49;19.53;;;11.17;;
9007;SDS011;62813;51.424;6.762;2024-01-10T14:18:16;17.97;;;10.53;;
9007;SDS011;62813;51.424;6.762;2024-01-10T14:20:43;21.33;;;12.03;;
9007;SDS011;62813;51.424;6.762;2024-01-10T14:23:09;20.33;;;11.27;;
9007;SDS011;62813;51.424;6.762;2024-01-10T14:25:36;19.97;;;11.37;;
9007;SDS011;62813;51.424;6.762;2024-01-10T14:28:03;23.97;;;13.00;;
9007;SDS011;62813;51.424;6.762;2024-01-10T14:30:30;19.87;;;11.73;;
9007;SDS011;62813;51.424;6.762;2024-01-10T14:32:59;20.43;;;11.53;;
9007;SDS011;62813;51.424;6.762;2024-01-10T14:35:26;22.43;;;12.33;;
9007;SDS011;62813;51.424;6.762;2024-01-10T14:37:53;50.97;;;27.40;;
9007;SDS011;62813;51.424;6.762;2024-01-10T14:40:20;33.07;;;17.47;;
9007;SDS011;62813;51.424;6.762;2024-01-10T14:42:50;21.80;;;12.47;;
9007;SDS011;62813;51.424;6.762;2024-01-10T14:45:17;21.07;;;11.37;;
9007;SDS011;62813;51.424;6.762;2024-01-10T14:47:43;20.73;;;11.83;;
9007;SDS011;62813;51.424;6.762;2024-01-10T14:50:10;21.03;;;11.53;;
9007;SDS011;62813;51.424;6.762;2024-01-10T14:52:38;21.57;;;12.33;;
9007;SDS011;62813;51.424;6.762;2024-01-10T14:55:04;22.90;;;12.63;;
9007;SDS011;62813;51.424;6.762;2024-01-10T14:57:31;22.13;;;12.43;;
9007;SDS011;62813;51.424;6.762;2024-01-10T14:59:59;22.00;;;11.80;;
9007;SDS011;62813;51.424;6.762;2024-01-10T15:02:26;17.73;;;10.90;;